Time;durP1;ratioP1;P1;durP2;ratioP2;P2;SDS_P1;SDS_P2;PMS_P1;PMS_P2;Temp;Humidity;BMP_temperature;BMP_pressure;BME280_temperature;BME280_humidity;BME280_pressure;Samples;Min_cycle;Max_cycle;Signal;HPM_P1;HPM_P2
2023/05/01 01:00:55;;;;;;;6.03;4.00;;;-0.20;99.90;;;;;;10064023;23;20172;-65
2023/05/01 01:05:35;;;;;;;6.50;4.23;;;-0.20;1.00;;;;;;9771601;24;20280;-67
2023/05/01 01:20:24;;;;;;;6.00;3.40;;;-0.40;99.90;;;;;;9630130;24;20214;-68
2023/05/01 01:25:05;;;;;;;;;;;;;;;;;;;;;
2023/05/01 01:30:05;;;;;;;4.70;3.37;;;-0.60;1.00;;;;;;9607924;24;20205;-68
2023/05/01 01:35:14;;;;;;;5.17;3.40;;;-0.60;17.00;;;;;;9653163;24;20209;-68
2023/05/01 01:40:05;;;;;;;5.10;3.37;;;-0.70;99.90;;;;;;9668673;24;20252;-68
2023/05/01 01:45:10;;;;;;;;;;;;;;;;;;;;;
2023/05/01 01:55:05;;;;;;;6.73;3.93;;;-0.80;1.00;;;;;;9775592;24;20272;-64
2023/05/01 02:00:07;;;;;;;6.30;3.67;;;-0.90;1.00;;;;;;9767921;24;20172;-62
2023/05/01 02:05:05;;;;;;;5.57;3.63;;;-0.90;99.90;;;;;;9723744;24;20201;-65
2023/05/01 02:09:45;;;;;;;6.33;3.70;;;-0.90;93.50;;;;;;9781272;23;20283;-63
2023/05/01 02:20:05;;;;;;;5.87;3.77;;;-1.00;99.90;;;;;;9765097;24;20177;-65
2023/05/01 03:45:35;;;;;;;8.07;4.83;;;-1.40;1.00;;;;;;9671612;24;20203;-68
2023/05/01 03:55:31;;;;;;;10.10;6.30;;;-1.20;1.00;;;;;;9828823;23;20371;-67
2023/05/01 05:04:44;;;;;;;13.30;8.73;;;5.70;1.00;;;;;;10248990;22;20311;-67
2023/05/01 05:08:54;;;;;;;15.10;10.70;;;5.30;1.00;;;;;;10248491;23;20161;-67
2023/05/01 05:13:00;;;;;;;15.50;10.33;;;5.00;15.20;;;;;;10305953;23;20297;-67
2023/05/01 05:17:08;;;;;;;36.20;20.87;;;4.90;31.70;;;;;;10291736;23;20166;-66
2023/05/01 05:21:28;;;;;;;50.57;28.67;;;5.10;70.30;;;;;;10296987;23;20252;-64
2023/05/01 05:25:56;;;;;;;28.30;16.00;;;5.20;86.30;;;;;;10304764;23;20157;-64
2023/05/01 05:30:03;;;;;;;17.87;12.07;;;5.40;99.90;;;;;;10300528;22;20176;-62
2023/05/01 05:34:07;;;;;;;17.10;11.87;;;5.70;99.90;;;;;;10299827;23;20160;-63
2023/05/01 05:38:26;;;;;;;19.67;13.17;;;5.80;99.90;;;;;;10303169;22;20164;-63
2023/05/01 05:42:28;;;;;;;15.43;9.90;;;6.00;99.90;;;;;;10308273;23;20217;-63
2023/05/01 05:46:32;;;;;;;20.57;13.07;;;6.20;99.90;;;;;;10305712;23;20157;-62
2023/05/01 05:50:42;;;;;;;17.70;11.33;;;6.40;99.90;;;;;;10303471;23;20161;-64
2023/05/01 05:54:46;;;;;;;13.97;9.60;;;6.50;99.90;;;;;;10306359;23;20146;-63
2023/05/01 05:59:02;;;;;;;15.07;9.17;;;6.60;99.90;;;;;;10304180;23;20158;-64
2023/05/01 06:03:30;;;;;;;16.80;9.63;;;6.70;99.90;;;;;;10305841;22;20201;-65
2023/05/01 06:07:42;;;;;;;14.17;9.47;;;6.80;99.90;;;;;;10330668;22;20364;-63
2023/05/01 06:11:49;;;;;;;15.33;10.13;;;7.10;99.90;;;;;;10301302;23;20220;-64
2023/05/01 06:16:21;;;;;;;14.10;9.60;;;7.40;99.90;;;;;;10305046;23;20165;-65
2023/05/01 06:20:25;;;;;;;14.97;9.43;;;7.70;99.90;;;;;;10301966;22;20165;-63
2023/05/01 06:24:29;;;;;;;16.03;9.63;;;8.00;99.90;;;;;;10305582;23;20248;-65
2023/05/01 06:28:39;;;;;;;13.97;7.40;;;8.20;94.30;;;;;;10307363;23;20157;-64
2023/05/01 06:32:49;;;;;;;7.23;5.57;;;8.50;84.40;;;;;;10327778;22;20272;-63
2023/05/01 06:37:25;;;;;;;10.97;5.30;;;8.90;27.10;;;;;;10302803;22;20146;-65
2023/05/01 06:41:29;;;;;;;15.33;5.40;;;9.40;1.00;;;;;;10159276;23;20190;-64
2023/05/01 06:45:41;;;;;;;7.67;4.40;;;10.00;1.00;;;;;;10177498;23;20170;-65
2023/05/01 06:50:13;;;;;;;9.03;5.03;;;10.30;1.00;;;;;;10178054;23;20163;-66
2023/05/01 06:54:31;;;;;;;9.63;4.93;;;10.70;1.00;;;;;;10168635;23;20245;-63
2023/05/01 06:58:48;;;;;;;7.17;4.47;;;10.90;1.00;;;;;;10132595;23;20168;-68
2023/05/01 07:03:02;;;;;;;7.57;4.53;;;11.20;1.00;;;;;;10124307;23;20207;-62
2023/05/01 07:07:03;;;;;;;7.73;3.87;;;11.50;1.00;;;;;;10114078;23;20265;-64
2023/05/01 07:11:10;;;;;;;7.43;3.70;;;11.70;1.00;;;;;;10185014;23;20160;-64
2023/05/01 07:15:20;;;;;;;8.70;4.40;;;12.00;1.00;;;;;;10260757;23;20189;-64
2023/05/01 07:19:38;;;;;;;11.03;4.17;;;12.10;1.00;;;;;;10255906;23;20185;-67
2023/05/01 07:23:42;;;;;;;6.97;4.27;;;12.30;1.00;;;;;;10259335;23;20197;-65
2023/05/01 07:28:10;;;;;;;7.37;4.67;;;12.40;1.00;;;;;;10247727;23;20163;-64
2023/05/01 07:32:11;;;;;;;12.77;4.80;;;12.60;1.00;;;;;;10270223;22;20218;-62
2023/05/01 07:37:03;;;;;;;8.73;4.63;;;12.70;1.00;;;;;;10245507;23;20153;-64
2023/05/01 07:50:52;;;;;;;8.77;4.47;;;13.20;1.00;;;;;;10132498;23;20169;-65
2023/05/01 07:55:18;;;;;;;8.10;4.47;;;13.30;1.00;;;;;;10129029;23;20284;-67
2023/05/01 07:59:22;;;;;;;7.07;3.60;;;13.30;1.00;;;;;;10163340;23;20221;-68
2023/05/01 08:03:57;;;;;;;8.13;3.77;;;13.40;1.00;;;;;;10171142;23;20265;-65
2023/05/01 08:08:18;;;;;;;6.83;3.63;;;13.60;1.00;;;;;;10177910;23;20161;-66
2023/05/01 08:12:30;;;;;;;8.30;3.80;;;13.70;1.00;;;;;;10267873;23;20185;-64
2023/05/01 08:17:06;;;;;;;8.10;3.80;;;13.60;1.00;;;;;;10308228;23;20154;-67
2023/05/01 08:21:09;;;;;;;6.23;3.37;;;13.70;1.00;;;;;;10090162;22;20185;-68
2023/05/01 08:25:18;;;;;;;5.97;3.03;;;13.70;1.00;;;;;;10253521;23;20164;-66
2023/05/01 08:29:51;;;;;;;6.33;2.93;;;13.80;1.00;;;;;;10248073;23;20161;-65
2023/05/01 08:34:03;;;;;;;4.43;2.83;;;14.10;1.00;;;;;;10231057;23;20169;-66
2023/05/01 08:39:22;;;;;;;5.33;2.87;;;14.30;1.00;;;;;;10248133;23;20188;-68
2023/05/01 08:43:30;;;;;;;5.37;2.83;;;14.60;1.00;;;;;;10273877;22;20189;-66
2023/05/01 08:47:42;;;;;;;6.70;2.90;;;14.70;1.00;;;;;;10304283;23;20157;-65
2023/05/01 08:51:51;;;;;;;4.30;2.43;;;14.80;1.00;;;;;;10309119;23;20172;-64
2023/05/01 08:55:56;;;;;;;6.77;3.30;;;15.00;1.00;;;;;;10309517;23;20207;-67
2023/05/01 09:00:09;;;;;;;5.50;2.30;;;15.20;1.00;;;;;;10310975;22;20192;-67
2023/05/01 09:04:35;;;;;;;4.90;2.30;;;15.40;1.00;;;;;;10272350;22;20206;-67
2023/05/01 09:08:53;;;;;;;4.63;2.50;;;15.60;1.00;;;;;;10251077;23;20181;-67
2023/05/01 09:13:21;;;;;;;4.60;2.63;;;15.80;1.00;;;;;;10257308;23;20169;-66
2023/05/01 09:18:06;;;;;;;5.87;2.20;;;16.00;1.00;;;;;;10281811;23;20162;-64
2023/05/01 09:22:15;;;;;;;7.77;2.53;;;16.10;1.00;;;;;;10251712;23;20236;-63
2023/05/01 09:26:20;;;;;;;6.00;2.70;;;16.20;1.00;;;;;;10255708;23;20162;-65
2023/05/01 09:30:46;;;;;;;4.80;2.70;;;16.30;1.00;;;;;;10256368;23;20154;-65
2023/05/01 09:35:06;;;;;;;8.90;2.87;;;16.40;1.00;;;;;;10152925;23;20159;-66
2023/05/01 09:39:42;;;;;;;5.37;2.40;;;16.30;1.00;;;;;;10154630;23;20210;-64
2023/05/01 09:44:18;;;;;;;6.53;2.70;;;16.40;1.00;;;;;;10129856;23;20195;-66
2023/05/01 09:48:50;;;;;;;4.97;2.83;;;16.60;1.00;;;;;;10080754;23;20159;-66
2023/05/01 09:52:58;;;;;;;5.80;3.00;;;16.70;1.00;;;;;;10131383;23;20170;-67
2023/05/01 09:56:59;;;;;;;8.73;3.37;;;16.70;1.00;;;;;;10013383;23;20165;-66
2023/05/01 10:01:00;;;;;;;6.77;3.10;;;16.90;1.00;;;;;;10012263;23;20225;-67
2023/05/01 10:05:06;;;;;;;8.53;3.20;;;17.00;1.00;;;;;;10037000;23;20206;-68
2023/05/01 10:09:43;;;;;;;7.23;3.13;;;17.10;1.00;;;;;;10082314;23;20156;-68
2023/05/01 10:14:11;;;;;;;6.37;3.23;;;17.20;1.00;;;;;;10087153;23;20243;-67
2023/05/01 10:18:25;;;;;;;6.97;3.03;;;17.20;1.00;;;;;;10083087;23;20317;-66
2023/05/01 10:22:29;;;;;;;4.73;2.73;;;17.00;1.00;;;;;;10083009;23;20244;-66
2023/05/01 10:26:49;;;;;;;7.50;3.30;;;16.90;1.00;;;;;;10109714;23;20163;-69
2023/05/01 10:31:00;;;;;;;8.97;2.90;;;17.00;1.00;;;;;;10087403;23;20160;-70
2023/05/01 10:35:59;;;;;;;6.63;2.93;;;17.10;1.00;;;;;;10186815;23;20159;-71
2023/05/01 10:40:41;;;;;;;7.33;2.83;;;17.20;1.00;;;;;;10079797;23;20246;-68
2023/05/01 10:55:47;;;;;;;6.93;2.90;;;17.50;1.00;;;;;;10214088;23;20206;-70
2023/05/01 11:00:07;;;;;;;4.07;2.70;;;17.70;1.00;;;;;;10213494;23;20183;-69
2023/05/01 11:04:47;;;;;;;5.87;2.93;;;17.80;1.00;;;;;;10233941;23;20209;-66
2023/05/01 11:09:01;;;;;;;4.80;2.60;;;17.90;1.00;;;;;;10260273;23;20162;-68
2023/05/01 11:13:33;;;;;;;6.93;3.17;;;18.00;1.00;;;;;;10260500;23;20158;-68
2023/05/01 11:17:43;;;;;;;5.40;2.60;;;18.30;1.00;;;;;;10245498;23;20212;-67
2023/05/01 11:21:53;;;;;;;4.30;2.50;;;18.50;1.00;;;;;;10258089;23;20182;-68
2023/05/01 11:26:16;;;;;;;4.07;2.33;;;18.50;1.00;;;;;;10263051;23;20154;-69
2023/05/01 11:30:45;;;;;;;6.67;2.80;;;18.80;1.00;;;;;;10132063;23;20404;-69
2023/05/01 11:34:51;;;;;;;5.50;3.13;;;18.90;1.00;;;;;;10217835;23;20205;-69
2023/05/01 11:38:59;;;;;;;3.43;2.70;;;18.90;1.00;;;;;;10260223;23;20162;-69
2023/05/01 11:43:08;;;;;;;4.07;2.03;;;19.00;1.00;;;;;;10254703;23;20190;-68
2023/05/01 11:47:32;;;;;;;;;;;;;;;;;;;;;
2023/05/01 11:51:48;;;;;;;;;;;;;;;;;;;;;
2023/05/01 11:56:14;;;;;;;5.77;2.77;;;19.40;1.00;;;;;;10258826;23;20149;-66
2023/05/01 12:00:55;;;;;;;5.20;3.17;;;19.30;1.00;;;;;;10251737;23;20252;-65
2023/05/01 12:05:12;;;;;;;4.80;2.90;;;19.40;1.00;;;;;;10253684;23;20232;-66
2023/05/01 12:09:25;;;;;;;5.13;3.10;;;19.40;1.00;;;;;;10254309;23;20211;-66
2023/05/01 12:13:49;;;;;;;4.30;2.77;;;19.30;1.00;;;;;;10259785;23;20142;-65
2023/05/01 12:18:21;;;;;;;5.93;2.77;;;19.30;1.00;;;;;;10276647;23;20230;-68
2023/05/01 12:22:28;;;;;;;4.83;2.80;;;19.30;1.00;;;;;;10252392;23;20189;-68
2023/05/01 12:31:09;;;;;;;6.67;2.93;;;19.40;1.00;;;;;;10223119;23;20168;-68
2023/05/01 12:35:20;;;;;;;12.00;10.73;;;19.50;1.00;;;;;;10221421;23;20170;-68
2023/05/01 12:39:43;;;;;;;7.97;5.57;;;19.70;1.00;;;;;;10224861;23;20173;-71
2023/05/01 12:44:11;;;;;;;5.40;3.50;;;19.70;1.00;;;;;;10224408;23;20190;-65
2023/05/01 12:48:18;;;;;;;9.83;6.17;;;19.70;1.00;;;;;;10225204;23;20161;-68
2023/05/01 12:57:23;;;;;;;8.17;5.30;;;19.60;1.00;;;;;;10191718;23;20192;-65
2023/05/01 13:01:51;;;;;;;9.23;6.93;;;19.60;1.00;;;;;;10211830;23;20190;-66
2023/05/01 13:06:18;;;;;;;8.07;4.70;;;19.60;1.00;;;;;;10255419;23;20224;-67
2023/05/01 13:10:30;;;;;;;7.03;3.10;;;19.60;1.00;;;;;;10250131;23;20161;-66
2023/05/01 13:15:06;;;;;;;4.50;3.00;;;19.70;1.00;;;;;;10254635;23;20166;-65
2023/05/01 13:19:18;;;;;;;5.37;3.00;;;19.60;1.00;;;;;;10235910;23;20166;-66
2023/05/01 13:23:51;;;;;;;7.40;3.97;;;19.60;1.00;;;;;;10256409;23;20261;-70
2023/05/01 13:28:11;;;;;;;5.97;3.03;;;19.70;1.00;;;;;;10251507;23;20157;-69
2023/05/01 13:37:13;;;;;;;6.50;4.00;;;19.60;1.00;;;;;;10153894;23;20167;-65
2023/05/01 13:41:50;;;;;;;12.03;6.63;;;19.60;1.00;;;;;;10132027;23;20198;-67
2023/05/01 13:46:11;;;;;;;5.33;3.57;;;19.70;1.00;;;;;;10126686;23;20163;-68
2023/05/01 13:50:28;;;;;;;4.03;2.70;;;19.90;1.00;;;;;;10154280;23;20163;-66
2023/05/01 13:54:42;;;;;;;6.67;4.17;;;20.00;1.00;;;;;;10235795;23;20265;-65
2023/05/01 13:59:05;;;;;;;6.10;3.80;;;20.00;1.00;;;;;;10261669;23;20216;-67
2023/05/01 14:03:29;;;;;;;9.27;5.13;;;20.20;1.00;;;;;;10205278;23;20220;-68
2023/05/01 14:12:32;;;;;;;5.43;4.00;;;20.10;1.00;;;;;;10209170;23;20157;-65
2023/05/01 14:16:48;;;;;;;6.87;2.87;;;20.10;1.00;;;;;;10207641;23;20166;-66
2023/05/01 14:20:53;;;;;;;6.03;2.90;;;20.00;1.00;;;;;;10206879;23;20162;-65
2023/05/01 14:25:32;;;;;;;3.87;2.63;;;20.00;1.00;;;;;;10209250;23;20187;-67
2023/05/01 14:29:42;;;;;;;6.87;3.70;;;19.90;1.00;;;;;;10203114;23;20224;-66
2023/05/01 14:34:06;;;;;;;6.70;3.80;;;19.80;1.00;;;;;;10210903;23;20167;-68
2023/05/01 14:38:37;;;;;;;7.47;4.23;;;19.70;1.00;;;;;;10214539;23;20139;-68
2023/05/01 14:42:45;;;;;;;4.33;3.00;;;19.70;1.00;;;;;;10212574;23;20182;-68
2023/05/01 14:47:02;;;;;;;6.67;2.90;;;19.90;1.00;;;;;;10212867;23;20158;-67
2023/05/01 14:51:12;;;;;;;6.70;2.83;;;20.10;1.00;;;;;;10213497;23;20166;-67
2023/05/01 14:55:43;;;;;;;4.00;2.67;;;20.20;1.00;;;;;;10213387;23;20159;-67
2023/05/01 15:00:19;;;;;;;5.40;2.70;;;20.20;1.00;;;;;;10239652;23;20157;-68
2023/05/01 15:04:27;;;;;;;7.03;2.60;;;20.30;1.00;;;;;;10201687;23;20205;-68
2023/05/01 15:08:37;;;;;;;6.73;3.43;;;20.30;1.00;;;;;;10229167;23;20178;-69
2023/05/01 15:12:38;;;;;;;5.40;3.17;;;20.20;1.00;;;;;;10233151;23;20185;-69
2023/05/01 15:21:28;;;;;;;5.80;2.40;;;20.00;1.00;;;;;;10237710;23;20190;-67
2023/05/01 15:25:39;;;;;;;3.53;2.20;;;20.00;1.00;;;;;;10233199;23;20158;-66
2023/05/01 15:29:40;;;;;;;4.07;2.67;;;20.00;1.00;;;;;;10233097;23;20220;-69
2023/05/01 15:33:41;;;;;;;4.33;2.50;;;19.90;1.00;;;;;;10259115;23;20267;-67
2023/05/01 15:47:22;;;;;;;4.30;2.37;;;19.50;1.00;;;;;;10189890;23;20162;-67
2023/05/01 15:56:33;;;;;;;5.47;2.47;;;19.20;1.00;;;;;;10241630;23;20170;-66
2023/05/01 16:00:48;;;;;;;7.33;3.47;;;19.10;1.00;;;;;;10257820;23;20166;-68
2023/05/01 16:10:26;;;;;;;4.90;2.67;;;18.70;1.00;;;;;;9952823;23;20186;-68
2023/05/01 16:14:42;;;;;;;4.83;2.77;;;18.50;1.00;;;;;;10004442;23;20176;-69
2023/05/01 16:18:54;;;;;;;5.23;2.90;;;18.40;1.00;;;;;;10101953;23;20165;-68
2023/05/01 16:23:11;;;;;;;5.23;2.90;;;18.60;1.00;;;;;;10180394;23;20193;-67
2023/05/01 16:27:13;;;;;;;5.50;2.30;;;18.70;1.00;;;;;;10173154;23;20166;-70
2023/05/01 16:31:23;;;;;;;5.43;2.67;;;18.80;1.00;;;;;;10179848;23;20167;-68
2023/05/01 16:35:36;;;;;;;8.43;3.60;;;19.00;1.00;;;;;;10180273;23;20199;-68
2023/05/01 16:39:59;;;;;;;5.10;2.80;;;19.10;1.00;;;;;;10180608;23;20178;-69
2023/05/01 16:44:15;;;;;;;6.73;2.63;;;19.10;1.00;;;;;;10214507;23;20198;-68
2023/05/01 16:48:22;;;;;;;5.73;2.53;;;19.10;1.00;;;;;;10202513;23;20151;-66
2023/05/01 16:52:24;;;;;;;3.57;2.20;;;19.00;1.00;;;;;;10203104;23;20205;-68
2023/05/01 17:00:56;;;;;;;5.83;2.37;;;18.70;1.00;;;;;;10221537;23;20150;-67
2023/05/01 17:04:58;;;;;;;3.30;2.93;;;18.40;1.00;;;;;;10107313;23;20187;-67
2023/05/01 17:09:16;;;;;;;3.67;2.80;;;18.20;1.00;;;;;;10105088;23;20160;-71
2023/05/01 17:18:37;;;;;;;5.00;2.67;;;17.70;1.00;;;;;;10109402;23;20188;-69
2023/05/01 17:23:13;;;;;;;5.73;2.60;;;17.50;1.00;;;;;;10087737;23;20198;-69
2023/05/01 17:27:17;;;;;;;14.23;4.90;;;17.20;1.00;;;;;;10087320;23;20244;-67
2023/05/01 17:31:27;;;;;;;5.00;3.03;;;17.00;1.00;;;;;;10084007;23;20211;-66
2023/05/01 17:35:32;;;;;;;10.73;3.17;;;16.90;1.00;;;;;;10135948;23;20170;-67
2023/05/01 17:39:39;;;;;;;9.00;2.60;;;16.80;1.00;;;;;;10186832;23;20158;-68
2023/05/01 17:43:43;;;;;;;2.70;2.00;;;16.60;1.00;;;;;;10187678;23;20281;-68
2023/05/01 17:47:46;;;;;;;4.53;2.87;;;16.40;1.00;;;;;;10212447;23;20245;-67
2023/05/01 17:52:01;;;;;;;4.67;2.43;;;16.30;1.00;;;;;;10185667;23;20244;-67
2023/05/01 17:56:25;;;;;;;3.80;2.03;;;16.20;1.00;;;;;;10182884;23;20246;-68
2023/05/01 18:00:33;;;;;;;7.70;3.00;;;16.20;1.00;;;;;;10181803;23;20167;-68
2023/05/01 18:04:38;;;;;;;5.87;3.37;;;16.10;1.00;;;;;;10179381;23;20206;-69
2023/05/01 18:08:54;;;;;;;6.47;2.70;;;16.00;1.00;;;;;;10178623;23;20189;-68
2023/05/01 18:12:57;;;;;;;4.00;2.43;;;15.90;1.00;;;;;;10142648;23;20198;-67
2023/05/01 18:17:20;;;;;;;6.70;3.27;;;15.90;1.00;;;;;;10209746;23;20163;-69
2023/05/01 18:21:21;;;;;;;3.50;2.23;;;16.00;1.00;;;;;;10179154;23;20210;-69
2023/05/01 18:25:26;;;;;;;4.33;2.70;;;15.90;1.00;;;;;;10204157;23;20163;-68
2023/05/01 18:29:27;;;;;;;4.47;2.60;;;15.90;1.00;;;;;;10208409;23;20166;-67
2023/05/01 18:33:28;;;;;;;3.20;2.27;;;15.80;1.00;;;;;;10204967;23;20173;-66
2023/05/01 18:37:44;;;;;;;4.33;2.40;;;15.70;1.00;;;;;;10210117;23;20173;-66
2023/05/01 18:41:45;;;;;;;4.43;2.23;;;15.60;1.00;;;;;;10208428;23;20190;-68
2023/05/01 18:46:19;;;;;;;4.93;2.30;;;15.50;1.00;;;;;;10185933;23;20158;-66
2023/05/01 18:50:43;;;;;;;4.67;2.40;;;15.40;1.00;;;;;;10183040;23;20162;-68
2023/05/01 18:54:47;;;;;;;5.07;2.27;;;15.20;1.00;;;;;;10190308;23;20159;-67
2023/05/01 18:59:06;;;;;;;3.00;2.40;;;15.10;1.00;;;;;;10213420;23;20233;-67
2023/05/01 19:03:25;;;;;;;3.57;2.37;;;14.90;1.00;;;;;;10212724;23;20198;-73
2023/05/01 19:07:35;;;;;;;5.27;2.63;;;14.70;1.00;;;;;;10209819;23;20151;-67
2023/05/01 19:11:54;;;;;;;5.73;3.03;;;14.70;1.00;;;;;;10182169;23;20197;-69
2023/05/01 19:16:04;;;;;;;5.80;2.90;;;14.60;1.00;;;;;;10208954;23;20183;-68
2023/05/01 19:20:19;;;;;;;6.23;3.07;;;14.50;1.00;;;;;;10173208;23;20209;-69
2023/05/01 19:24:23;;;;;;;7.00;3.80;;;14.40;1.00;;;;;;10204916;23;20194;-67
2023/05/01 19:28:36;;;;;;;9.30;5.07;;;14.30;1.00;;;;;;10203794;23;20239;-68
2023/05/01 19:32:49;;;;;;;7.10;4.30;;;14.10;1.00;;;;;;10206344;23;20177;-67
2023/05/01 19:37:07;;;;;;;6.03;3.30;;;14.00;1.00;;;;;;10184102;23;20161;-67
2023/05/01 19:41:10;;;;;;;6.70;4.07;;;13.90;1.00;;;;;;10201899;23;20209;-66
2023/05/01 19:45:26;;;;;;;5.40;3.60;;;13.90;1.00;;;;;;10210048;23;20151;-68
2023/05/01 19:49:33;;;;;;;6.13;4.40;;;13.80;1.00;;;;;;10205904;23;20221;-66
2023/05/01 19:53:37;;;;;;;7.70;4.73;;;13.70;1.00;;;;;;10178734;23;20163;-68
2023/05/01 20:02:33;;;;;;;7.57;4.37;;;13.40;1.00;;;;;;10064929;23;20194;-66
2023/05/01 20:07:01;;;;;;;7.60;4.07;;;13.30;1.00;;;;;;10203403;23;20349;-68
2023/05/01 20:11:34;;;;;;;7.03;4.50;;;13.10;1.00;;;;;;10178976;23;20158;-66
2023/05/01 20:20:32;;;;;;;7.07;3.90;;;12.80;1.00;;;;;;10193758;23;20190;-66
2023/05/01 20:24:36;;;;;;;6.73;4.20;;;12.60;1.00;;;;;;10205177;23;20269;-67
2023/05/01 20:28:40;;;;;;;6.43;3.93;;;12.40;1.00;;;;;;10209605;23;20166;-68
2023/05/01 20:32:44;;;;;;;6.50;3.73;;;12.20;1.00;;;;;;10204526;23;20173;-67
2023/05/01 20:36:48;;;;;;;7.00;3.70;;;12.00;1.00;;;;;;10204345;23;20174;-67
2023/05/01 20:40:55;;;;;;;7.53;4.23;;;11.70;1.00;;;;;;10209375;23;20248;-68
2023/05/01 20:44:59;;;;;;;6.50;3.77;;;11.50;1.00;;;;;;10207907;23;20266;-67
2023/05/01 20:49:20;;;;;;;;;;;;;;;;;;;;;
2023/05/01 20:53:25;;;;;;;7.37;4.07;;;11.20;1.00;;;;;;10211916;23;20175;-67
2023/05/01 20:57:39;;;;;;;5.77;3.80;;;11.00;1.00;;;;;;10187531;23;20165;-68
2023/05/01 21:01:41;;;;;;;5.67;4.03;;;10.90;1.00;;;;;;10209538;23;20183;-67
2023/05/01 21:05:42;;;;;;;5.97;3.93;;;10.80;1.00;;;;;;10214336;23;20179;-68
2023/05/01 21:09:49;;;;;;;6.80;4.10;;;10.70;1.00;;;;;;10211456;23;20252;-68
2023/05/01 21:14:00;;;;;;;6.67;4.30;;;10.70;1.00;;;;;;10211350;23;20239;-68
2023/05/01 21:18:01;;;;;;;6.70;4.33;;;10.60;1.00;;;;;;10185323;23;20163;-66
2023/05/01 21:22:44;;;;;;;5.60;4.07;;;10.50;1.00;;;;;;10210956;23;20205;-69
2023/05/01 21:26:48;;;;;;;6.73;4.43;;;10.50;10.80;;;;;;10187242;23;20174;-66
2023/05/01 21:30:51;;;;;;;6.70;4.23;;;10.40;18.20;;;;;;10211714;23;20246;-68
2023/05/01 21:35:02;;;;;;;6.87;4.17;;;10.40;25.00;;;;;;10212711;23;20163;-67
2023/05/01 21:39:15;;;;;;;6.57;4.07;;;10.30;30.00;;;;;;10210046;23;20163;-66
2023/05/01 21:43:18;;;;;;;8.80;4.73;;;10.20;39.50;;;;;;10180089;23;20198;-68
2023/05/01 21:56:46;;;;;;;8.27;4.30;;;10.20;63.10;;;;;;10108990;23;20170;-69
2023/05/01 22:01:09;;;;;;;6.43;4.03;;;10.20;65.00;;;;;;10209342;23;20158;-66
2023/05/01 22:05:29;;;;;;;7.13;4.53;;;10.20;62.50;;;;;;10212210;23;20324;-67
2023/05/01 22:09:52;;;;;;;6.70;3.90;;;10.20;64.30;;;;;;10207355;23;20163;-68
2023/05/01 22:14:00;;;;;;;6.80;4.37;;;10.30;68.00;;;;;;10206489;23;20163;-66
2023/05/01 22:18:45;;;;;;;7.93;4.50;;;10.30;68.20;;;;;;10205189;23;20169;-68
2023/05/01 22:23:21;;;;;;;8.53;4.90;;;10.30;70.30;;;;;;10164737;23;20288;-68
2023/05/01 22:28:11;;;;;;;6.77;4.53;;;10.40;84.00;;;;;;10178213;23;20165;-68
2023/05/01 22:32:31;;;;;;;5.77;4.13;;;10.30;97.00;;;;;;10059073;23;20164;-67
2023/05/01 22:36:44;;;;;;;7.93;4.77;;;10.20;99.90;;;;;;10059412;23;20219;-66
2023/05/01 22:41:14;;;;;;;7.37;4.63;;;10.20;99.90;;;;;;10082613;23;20162;-67
2023/05/01 22:45:43;;;;;;;6.17;4.10;;;10.20;99.90;;;;;;10190241;23;20175;-69
2023/05/01 22:49:51;;;;;;;6.80;4.50;;;10.30;99.90;;;;;;10212737;23;20167;-68
2023/05/01 22:53:54;;;;;;;7.00;4.57;;;10.20;99.90;;;;;;10210790;23;20173;-68
2023/05/01 22:57:58;;;;;;;7.20;4.70;;;10.20;99.90;;;;;;10208834;23;20171;-67
2023/05/01 23:06:25;;;;;;;7.37;4.37;;;10.20;99.90;;;;;;10259733;23;20279;-68
2023/05/01 23:10:49;;;;;;;8.10;5.13;;;10.20;99.90;;;;;;10235801;23;20162;-68
2023/05/01 23:15:01;;;;;;;7.33;5.30;;;10.10;99.90;;;;;;10233135;23;20260;-67
2023/05/01 23:19:05;;;;;;;7.53;5.37;;;10.10;99.90;;;;;;10235024;23;20289;-67
2023/05/01 23:24:01;;;;;;;9.40;5.77;;;10.20;99.90;;;;;;10233917;23;20190;-68
2023/05/01 23:27:55;;;;;;;9.53;5.80;;;10.10;99.90;;;;;;10245833;23;20233;-68
2023/05/01 23:32:04;;;;;;;10.57;5.67;;;10.20;99.90;;;;;;10232475;23;20175;-67
2023/05/01 23:36:11;;;;;;;8.07;5.10;;;10.20;99.90;;;;;;10235077;23;20340;-67
2023/05/01 23:40:17;;;;;;;11.13;6.73;;;10.20;99.90;;;;;;10210064;23;20212;-67
2023/05/01 23:44:21;;;;;;;12.80;6.30;;;10.20;99.90;;;;;;10261051;23;20186;-67
2023/05/01 23:48:47;;;;;;;7.83;5.60;;;10.10;99.90;;;;;;10238918;23;20242;-66
2023/05/01 23:52:51;;;;;;;9.37;5.37;;;10.10;99.90;;;;;;10236511;23;20269;-68
2023/05/01 23:57:04;;;;;;;6.67;5.00;;;10.00;99.90;;;;;;10260254;23;20185;-68
